Time;durP1;ratioP1;P1;durP2;ratioP2;P2;SDS_P1;SDS_P2;PMS_P1;PMS_P2;Temp;Humidity;BMP_temperature;BMP_pressure;BME280_temperature;BME280_humidity;BME280_pressure;Samples;Min_cycle;Max_cycle;Signal;HPM_P1;HPM_P2
2021/04/03 00:08:02;;;;;;;2.13;0.63;;;15.90;99.90;;;;;;20732761;28;20254;-77
2021/04/03 00:18:05;;;;;;;2.10;0.50;;;15.60;99.90;;;;;;20726157;28;20206;-75
2021/04/03 00:28:09;;;;;;;0.30;0.30;;;15.80;99.90;;;;;;20691051;28;20700;-77
2021/04/03 00:38:12;;;;;;;1.63;1.30;;;15.50;99.90;;;;;;20733472;28;20431;-77
2021/04/03 00:48:16;;;;;;;1.87;0.77;;;15.30;99.90;;;;;;20698374;28;20301;-76
2021/04/03 00:58:19;;;;;;;0.37;0.37;;;15.30;99.90;;;;;;20690002;28;20282;-76
2021/04/03 01:08:23;;;;;;;0.43;0.40;;;14.80;99.90;;;;;;20781565;28;20227;-76
2021/04/03 01:18:31;;;;;;;1.07;0.97;;;14.70;99.90;;;;;;20754861;28;20234;-77
2021/04/03 01:29:10;;;;;;;0.87;0.60;;;14.50;99.90;;;;;;20741930;28;20306;-77
2021/04/03 01:39:17;;;;;;;1.33;0.80;;;14.30;99.90;;;;;;20741091;28;20306;-77
2021/04/03 01:49:23;;;;;;;0.60;0.40;;;13.50;99.90;;;;;;20740282;28;20551;-77
2021/04/03 01:59:26;;;;;;;0.50;0.50;;;13.40;99.90;;;;;;20705630;28;20218;-77
2021/04/03 02:09:33;;;;;;;1.73;1.07;;;13.10;99.90;;;;;;20716560;28;20231;-77
2021/04/03 02:19:38;;;;;;;0.77;0.77;;;13.10;99.90;;;;;;20686802;28;20200;-77
2021/04/03 02:29:41;;;;;;;0.60;0.60;;;13.30;99.90;;;;;;20664391;28;20315;-77
2021/04/03 02:39:44;;;;;;;5.60;1.33;;;13.60;99.90;;;;;;20655164;28;20223;-77
2021/04/03 02:49:55;;;;;;;0.87;0.60;;;14.30;99.90;;;;;;20668274;28;20269;-75
2021/04/03 03:00:01;;;;;;;1.43;0.83;;;14.40;99.90;;;;;;20684545;28;20285;-77
2021/04/03 03:10:05;;;;;;;1.20;0.77;;;14.30;99.90;;;;;;20704859;28;20692;-76
2021/04/03 03:20:12;;;;;;;0.50;0.47;;;14.20;99.90;;;;;;20669656;28;20206;-77
2021/04/03 03:30:17;;;;;;;0.27;0.27;;;14.10;99.90;;;;;;20676738;28;20575;-78
2021/04/03 03:40:21;;;;;;;0.33;0.33;;;14.00;99.90;;;;;;20749916;28;20314;-77
2021/04/03 03:50:24;;;;;;;0.87;0.30;;;13.70;99.90;;;;;;20710394;28;20237;-77
2021/04/03 04:00:27;;;;;;;0.80;0.80;;;13.80;99.90;;;;;;20749749;28;20277;-76
2021/04/03 04:10:30;;;;;;;2.63;1.37;;;13.30;99.90;;;;;;20684291;28;20625;-76
2021/04/03 04:20:33;;;;;;;0.63;0.63;;;13.30;99.90;;;;;;20746972;28;20191;-77
2021/04/03 04:30:36;;;;;;;0.33;0.33;;;13.10;99.90;;;;;;20745121;28;20229;-78
2021/04/03 04:40:39;;;;;;;4.87;1.47;;;13.00;99.90;;;;;;20744752;28;20695;-76
2021/04/03 04:50:42;;;;;;;2.30;1.33;;;13.40;99.90;;;;;;20744240;28;20226;-74
2021/04/03 05:00:46;;;;;;;0.20;0.20;;;13.60;99.90;;;;;;20743407;28;20582;-76
2021/04/03 05:10:49;;;;;;;0.97;0.83;;;13.70;99.90;;;;;;20743026;28;20246;-77
2021/04/03 05:20:52;;;;;;;1.90;1.03;;;13.70;99.90;;;;;;20741752;28;20595;-78
2021/04/03 05:30:55;;;;;;;0.93;0.43;;;13.90;99.90;;;;;;20741298;28;20258;-77
2021/04/03 05:40:58;;;;;;;0.60;0.60;;;14.20;99.90;;;;;;20763347;28;20282;-77
2021/04/03 05:51:01;;;;;;;2.00;0.50;;;14.30;99.90;;;;;;20820891;28;20313;-76
2021/04/03 06:01:06;;;;;;;1.70;1.03;;;14.40;99.90;;;;;;20816244;28;20227;-76
2021/04/03 06:11:14;;;;;;;1.33;0.90;;;14.50;99.90;;;;;;20738504;28;20775;-76
2021/04/03 06:21:17;;;;;;;0.40;0.40;;;14.50;99.90;;;;;;20719743;28;20222;-76
2021/04/03 06:31:22;;;;;;;1.00;0.77;;;15.10;99.90;;;;;;20736538;28;20714;-77
2021/04/03 06:41:26;;;;;;;0.70;0.70;;;15.20;99.90;;;;;;20735225;28;20215;-78
2021/04/03 06:51:29;;;;;;;3.53;1.27;;;15.30;99.90;;;;;;20734444;28;20222;-76
2021/04/03 07:01:45;;;;;;;1.63;0.87;;;15.80;99.90;;;;;;20741966;28;20218;-76
2021/04/03 07:11:49;;;;;;;1.50;0.97;;;16.30;99.90;;;;;;20814724;28;20264;-75
2021/04/03 07:21:53;;;;;;;0.70;0.60;;;16.80;99.90;;;;;;20814506;28;20658;-76
2021/04/03 07:31:56;;;;;;;1.67;1.40;;;17.30;99.90;;;;;;20796824;28;20628;-76
2021/04/03 07:41:59;;;;;;;2.03;1.10;;;17.70;99.90;;;;;;20814115;28;20250;-73
2021/04/03 07:52:02;;;;;;;1.60;1.33;;;17.10;99.90;;;;;;20811627;28;20229;-76
2021/04/03 08:02:09;;;;;;;0.73;0.73;;;17.10;99.90;;;;;;20799777;28;20245;-77
2021/04/03 08:12:11;;;;;;;4.33;1.40;;;17.50;99.90;;;;;;20729389;28;20353;-73
2021/04/03 08:22:19;;;;;;;1.00;0.90;;;18.00;99.90;;;;;;20744201;28;20370;-75
2021/04/03 08:32:22;;;;;;;6.87;2.37;;;18.00;99.90;;;;;;20744354;28;20781;-75
2021/04/03 08:42:25;;;;;;;7.87;1.00;;;18.50;99.90;;;;;;20743349;28;20251;-74
2021/04/03 08:52:28;;;;;;;1.57;1.00;;;18.90;99.90;;;;;;20742407;28;20296;-72
2021/04/03 09:02:33;;;;;;;1.77;1.07;;;19.30;99.90;;;;;;20758295;28;20206;-74
2021/04/03 09:12:37;;;;;;;2.40;1.30;;;19.70;99.90;;;;;;20822939;28;20230;-74
2021/04/03 09:22:45;;;;;;;1.40;1.30;;;20.00;99.90;;;;;;20822556;28;20594;-73
2021/04/03 09:32:48;;;;;;;0.80;0.63;;;20.20;99.90;;;;;;20803532;28;20224;-73
2021/04/03 09:42:56;;;;;;;1.23;1.13;;;19.60;99.90;;;;;;20764968;28;20250;-71
2021/04/03 09:53:06;;;;;;;2.70;0.80;;;20.20;99.90;;;;;;20737326;28;20237;-75
2021/04/03 10:03:10;;;;;;;2.43;1.60;;;20.70;99.90;;;;;;20710624;28;20194;-72
2021/04/03 10:13:16;;;;;;;6.00;3.30;;;20.80;99.90;;;;;;20734445;28;20654;-73
2021/04/03 10:23:19;;;;;;;1.40;0.90;;;21.40;99.90;;;;;;20717616;28;20202;-73
2021/04/03 10:33:22;;;;;;;5.13;3.13;;;21.20;99.90;;;;;;20735890;28;20222;-71
2021/04/03 10:43:25;;;;;;;2.13;1.70;;;20.60;99.90;;;;;;20764452;28;20226;-71
2021/04/03 10:53:28;;;;;;;5.40;1.70;;;20.50;99.90;;;;;;20731503;28;20256;-71
2021/04/03 11:03:31;;;;;;;3.37;1.57;;;21.80;99.90;;;;;;20732095;28;20229;-73
2021/04/03 11:13:34;;;;;;;4.17;2.40;;;22.30;99.90;;;;;;20729965;28;20688;-74
2021/04/03 11:23:38;;;;;;;4.95;2.75;;;22.30;99.90;;;;;;20729995;28;20194;-71
2021/04/03 11:33:40;;;;;;;2.13;1.15;;;23.70;99.90;;;;;;20713318;28;20539;-69
2021/04/03 11:43:44;;;;;;;1.70;1.50;;;23.70;99.90;;;;;;20710698;28;20230;-73
2021/04/03 11:53:46;;;;;;;3.25;1.58;;;24.00;99.90;;;;;;20721629;28;20322;-73
2021/04/03 12:03:50;;;;;;;0.82;0.70;;;25.10;99.90;;;;;;20744464;28;20289;-73
2021/04/03 12:13:53;;;;;;;4.13;1.30;;;25.00;99.90;;;;;;20744518;28;20606;-74
2021/04/03 12:23:56;;;;;;;4.20;1.35;;;24.60;99.90;;;;;;20742988;28;20715;-72
2021/04/03 12:33:59;;;;;;;2.05;1.20;;;24.90;99.90;;;;;;20743789;28;20223;-73
2021/04/03 12:44:02;;;;;;;6.35;1.23;;;24.60;99.90;;;;;;20784930;28;20230;-72
2021/04/03 12:54:05;;;;;;;1.10;1.00;;;25.40;99.90;;;;;;20693097;28;20384;-74
2021/04/03 13:04:09;;;;;;;1.88;1.77;;;24.60;99.90;;;;;;20688531;28;20195;-73
2021/04/03 13:14:11;;;;;;;1.88;1.20;;;25.00;99.90;;;;;;20737583;28;20241;-72
2021/04/03 13:24:15;;;;;;;2.63;1.13;;;24.90;99.90;;;;;;20809258;28;20194;-72
2021/04/03 13:34:17;;;;;;;7.75;1.52;;;24.40;99.90;;;;;;20725003;28;20297;-69
2021/04/03 13:44:21;;;;;;;5.25;1.77;;;24.90;99.90;;;;;;20722897;28;20219;-69
2021/04/03 13:54:23;;;;;;;2.25;1.50;;;25.00;99.90;;;;;;20764316;28;20316;-69
2021/04/03 14:04:27;;;;;;;4.20;1.58;;;25.80;99.90;;;;;;20727369;28;20226;-72
2021/04/03 14:14:29;;;;;;;2.55;1.30;;;25.80;99.90;;;;;;20713615;28;20219;-69
2021/04/03 14:24:33;;;;;;;1.83;1.60;;;26.60;99.90;;;;;;20731587;28;20660;-71
2021/04/03 14:34:35;;;;;;;3.20;1.85;;;26.70;99.90;;;;;;20731321;28;20664;-70
2021/04/03 14:44:39;;;;;;;5.15;1.63;;;26.70;99.90;;;;;;20730528;28;20282;-71
2021/04/03 14:54:41;;;;;;;2.80;1.58;;;27.60;99.90;;;;;;20735671;28;20698;-74
2021/04/03 15:04:45;;;;;;;3.92;0.98;;;26.50;99.90;;;;;;20810629;28;20201;-72
2021/04/03 15:14:47;;;;;;;4.95;1.67;;;27.40;99.90;;;;;;20810040;28;20253;-68
2021/04/03 15:24:51;;;;;;;2.20;1.10;;;26.80;99.90;;;;;;20811104;28;20225;-69
2021/04/03 15:34:54;;;;;;;1.33;1.17;;;27.30;99.90;;;;;;20809923;28;20221;-70
2021/04/03 15:44:57;;;;;;;1.08;0.93;;;26.90;99.90;;;;;;20791055;28;20236;-70
2021/04/03 15:54:59;;;;;;;2.03;1.80;;;26.20;99.90;;;;;;20801572;28;20298;-69
2021/04/03 16:05:03;;;;;;;2.03;0.90;;;25.10;99.90;;;;;;20724778;28;20199;-71
2021/04/03 16:15:07;;;;;;;2.77;1.30;;;23.80;99.90;;;;;;20725932;28;20317;-70
2021/04/03 16:25:11;;;;;;;0.90;0.90;;;22.80;99.90;;;;;;20706487;28;20286;-68
2021/04/03 16:35:16;;;;;;;1.83;1.10;;;22.10;99.90;;;;;;20709057;28;20716;-70
2021/04/03 16:45:19;;;;;;;3.37;1.50;;;21.40;99.90;;;;;;20748874;28;20233;-68
2021/04/03 16:55:22;;;;;;;3.27;2.03;;;21.20;99.90;;;;;;20742320;28;20246;-73
2021/04/03 17:05:26;;;;;;;1.90;0.83;;;21.10;99.90;;;;;;20738252;28;20214;-73
2021/04/03 17:15:28;;;;;;;1.43;0.80;;;21.10;99.90;;;;;;20737642;28;20309;-71
2021/04/03 17:25:32;;;;;;;2.27;1.37;;;20.70;99.90;;;;;;20783031;28;20531;-73
2021/04/03 17:35:35;;;;;;;1.53;1.33;;;21.10;99.90;;;;;;20815298;28;20281;-72
2021/04/03 17:45:38;;;;;;;1.77;0.93;;;21.10;99.90;;;;;;20817550;28;20637;-72
2021/04/03 17:55:41;;;;;;;1.47;1.37;;;19.80;99.90;;;;;;20816847;28;20234;-72
2021/04/03 18:05:59;;;;;;;1.20;1.10;;;19.20;99.90;;;;;;20815357;28;20193;-73
2021/04/03 18:16:02;;;;;;;9.50;1.53;;;18.40;99.90;;;;;;20806941;28;20316;-73
2021/04/03 18:26:05;;;;;;;3.60;0.97;;;18.30;99.90;;;;;;20819070;28;20198;-72
2021/04/03 18:36:10;;;;;;;2.57;1.20;;;18.40;99.90;;;;;;20813363;28;20249;-71
2021/04/03 18:46:14;;;;;;;2.63;1.40;;;18.20;99.90;;;;;;20809820;28;20639;-70
2021/04/03 18:56:17;;;;;;;1.77;1.20;;;18.40;99.90;;;;;;20792447;28;20250;-71
2021/04/03 19:06:21;;;;;;;3.87;2.40;;;18.30;99.90;;;;;;20711247;28;20195;-71
2021/04/03 19:16:23;;;;;;;4.33;2.73;;;18.30;99.90;;;;;;20727246;28;20648;-70
2021/04/03 19:26:27;;;;;;;1.67;1.57;;;18.10;99.90;;;;;;20728150;28;20277;-72
2021/04/03 19:36:29;;;;;;;0.83;0.60;;;17.80;99.90;;;;;;20727598;28;20321;-70
2021/04/03 19:46:33;;;;;;;2.23;0.90;;;17.70;99.90;;;;;;20727346;28;20226;-70
2021/04/03 19:56:35;;;;;;;7.77;1.30;;;17.60;99.90;;;;;;20746775;28;20713;-70
2021/04/03 20:06:41;;;;;;;16.13;8.77;;;17.80;99.90;;;;;;20808741;28;20206;-71
2021/04/03 20:16:44;;;;;;;1.60;0.70;;;18.00;99.90;;;;;;20820795;28;20261;-70
2021/04/03 20:26:48;;;;;;;6.47;0.80;;;17.50;99.90;;;;;;20807380;28;20193;-71
2021/04/03 20:36:50;;;;;;;0.67;0.60;;;17.30;99.90;;;;;;20706755;28;20225;-72
2021/04/03 20:46:55;;;;;;;2.30;0.90;;;17.20;99.90;;;;;;20700127;28;20543;-71
2021/04/03 20:56:58;;;;;;;1.00;0.77;;;17.20;99.90;;;;;;20746151;28;20253;-71
2021/04/03 21:07:02;;;;;;;1.53;1.43;;;17.00;99.90;;;;;;20707896;28;20203;-73
2021/04/03 21:17:05;;;;;;;1.17;1.07;;;15.80;99.90;;;;;;20655991;28;20566;-69
2021/04/03 21:27:09;;;;;;;0.50;0.50;;;15.10;99.90;;;;;;20717808;28;20225;-68
2021/04/03 21:37:12;;;;;;;1.80;1.13;;;15.10;99.90;;;;;;20724721;28;20237;-70
2021/04/03 21:47:16;;;;;;;1.33;0.70;;;14.90;99.90;;;;;;20741024;28;20322;-70
2021/04/03 21:57:20;;;;;;;1.00;0.80;;;14.40;99.90;;;;;;20790368;28;20755;-72
2021/04/03 22:07:24;;;;;;;2.17;0.97;;;14.20;99.90;;;;;;20732450;28;20298;-71
2021/04/03 22:17:27;;;;;;;0.60;0.53;;;14.10;99.90;;;;;;20712424;28;20233;-71
2021/04/03 22:27:30;;;;;;;5.40;0.80;;;13.90;99.90;;;;;;20731179;28;20636;-72
2021/04/03 22:37:33;;;;;;;0.63;0.63;;;13.80;99.90;;;;;;20760687;28;20267;-72
2021/04/03 22:47:40;;;;;;;0.40;0.40;;;13.60;99.90;;;;;;20787231;28;20237;-72
2021/04/03 22:57:43;;;;;;;2.40;0.50;;;13.50;99.90;;;;;;20713326;28;20325;-73
2021/04/03 23:07:47;;;;;;;0.73;0.73;;;13.60;99.90;;;;;;20781119;28;20194;-72
2021/04/03 23:17:53;;;;;;;0.93;0.83;;;13.60;99.90;;;;;;20813276;28;20636;-73
2021/04/03 23:27:56;;;;;;;0.80;0.80;;;13.50;99.90;;;;;;20812705;28;20208;-72
2021/04/03 23:37:58;;;;;;;2.33;0.90;;;13.60;99.90;;;;;;20797310;28;20218;-70
2021/04/03 23:48:02;;;;;;;0.90;0.87;;;13.50;99.90;;;;;;20723899;28;20594;-70
2021/04/03 23:58:05;;;;;;;11.83;0.93;;;13.60;99.90;;;;;;20748627;28;20226;-70
